Time;durP1;ratioP1;P1;durP2;ratioP2;P2;SDS_P1;SDS_P2;PMS_P1;PMS_P2;Temp;Humidity;BMP_temperature;BMP_pressure;BME280_temperature;BME280_humidity;BME280_pressure;Samples;Min_cycle;Max_cycle;Signal;HPM_P1;HPM_P2
2023/06/02 00:00:42;;;;;;;5.57;4.97;;;18.70;1.00;;;;;;5119129;28;20668;-50
2023/06/02 00:03:08;;;;;;;5.40;4.90;;;18.60;1.00;;;;;;5119447;28;20188;-57
2023/06/02 00:05:34;;;;;;;6.60;6.00;;;18.60;1.00;;;;;;5119236;28;20442;-48
2023/06/02 00:08:02;;;;;;;5.40;4.90;;;18.60;1.00;;;;;;5117676;28;20746;-47
2023/06/02 00:10:28;;;;;;;9.23;5.27;;;18.50;1.00;;;;;;5117651;28;20849;-49
2023/06/02 00:12:54;;;;;;;4.93;4.43;;;18.40;1.00;;;;;;5117761;28;20440;-47
2023/06/02 00:15:19;;;;;;;6.43;5.70;;;18.30;1.00;;;;;;5118880;28;20279;-51
2023/06/02 00:17:45;;;;;;;7.27;4.50;;;18.30;1.00;;;;;;5118715;28;20184;-48
2023/06/02 00:20:11;;;;;;;5.30;4.80;;;18.20;1.00;;;;;;5119130;28;20223;-49
2023/06/02 00:22:38;;;;;;;5.53;5.03;;;18.20;1.00;;;;;;5136137;27;20223;-48
2023/06/02 00:25:04;;;;;;;5.80;5.03;;;18.20;1.00;;;;;;5121386;27;20205;-46
2023/06/02 00:27:30;;;;;;;5.40;4.70;;;18.10;1.00;;;;;;5140172;27;20511;-50
2023/06/02 00:29:56;;;;;;;6.73;5.17;;;18.10;1.00;;;;;;5121770;27;20866;-50
2023/06/02 00:32:22;;;;;;;5.83;5.27;;;18.10;1.00;;;;;;5121117;27;20445;-48
2023/06/02 00:34:48;;;;;;;5.20;4.70;;;18.00;1.00;;;;;;5138409;27;20179;-47
2023/06/02 00:37:14;;;;;;;4.97;4.50;;;18.00;1.00;;;;;;5120239;27;20432;-47
2023/06/02 00:39:41;;;;;;;8.53;5.90;;;18.00;1.00;;;;;;5120240;27;20211;-49
2023/06/02 00:42:07;;;;;;;5.30;4.80;;;17.90;1.00;;;;;;5102738;27;20432;-47
2023/06/02 00:44:32;;;;;;;5.43;4.93;;;17.80;1.00;;;;;;5120222;27;20328;-49
2023/06/02 00:46:58;;;;;;;6.33;5.40;;;17.80;1.00;;;;;;5138753;27;20821;-48
2023/06/02 00:49:24;;;;;;;5.57;5.07;;;17.80;1.00;;;;;;5138811;27;20464;-48
2023/06/02 00:51:50;;;;;;;5.83;4.60;;;17.80;1.00;;;;;;5139026;27;20190;-47
2023/06/02 00:54:16;;;;;;;6.63;5.93;;;17.70;1.00;;;;;;5139101;27;20838;-48
2023/06/02 00:56:42;;;;;;;6.53;5.17;;;17.70;1.00;;;;;;5138662;27;20674;-47
2023/06/02 00:59:08;;;;;;;6.53;5.27;;;17.60;1.00;;;;;;5126780;27;20420;-47
2023/06/02 01:01:35;;;;;;;6.80;5.37;;;17.60;1.00;;;;;;5118484;28;20790;-46
2023/06/02 01:04:01;;;;;;;10.60;5.67;;;17.60;1.00;;;;;;5127535;27;20428;-49
2023/06/02 01:06:34;;;;;;;7.40;5.17;;;17.60;1.00;;;;;;5138249;27;20845;-48
2023/06/02 01:09:06;;;;;;;7.10;5.57;;;17.60;1.00;;;;;;5136121;27;20802;-49
2023/06/02 01:11:32;;;;;;;8.33;5.87;;;17.60;1.00;;;;;;5136576;27;20542;-49
2023/06/02 01:13:59;;;;;;;5.93;5.30;;;17.60;1.00;;;;;;5136824;27;20495;-47
2023/06/02 01:16:27;;;;;;;6.17;5.57;;;17.60;1.00;;;;;;5124943;27;20438;-48
2023/06/02 01:18:53;;;;;;;6.40;5.30;;;17.50;1.00;;;;;;5098760;28;20444;-47
2023/06/02 01:21:22;;;;;;;5.77;5.27;;;17.50;1.00;;;;;;5116615;28;20583;-48
2023/06/02 01:23:54;;;;;;;5.60;5.10;;;17.50;1.00;;;;;;5098272;28;20422;-47
2023/06/02 01:26:20;;;;;;;5.53;4.87;;;17.50;1.00;;;;;;5117773;28;20465;-47
2023/06/02 01:28:46;;;;;;;5.70;5.10;;;17.50;1.00;;;;;;5083315;28;20831;-47
2023/06/02 01:31:16;;;;;;;5.63;5.13;;;17.50;1.00;;;;;;5117968;28;20433;-48
2023/06/02 01:33:51;;;;;;;7.13;5.17;;;17.50;1.00;;;;;;5099545;28;20182;-47
2023/06/02 01:36:20;;;;;;;6.50;5.27;;;17.50;1.00;;;;;;5079466;28;20442;-48
2023/06/02 01:38:46;;;;;;;6.10;5.50;;;17.50;1.00;;;;;;5115582;28;20417;-48
2023/06/02 01:41:13;;;;;;;5.33;4.80;;;17.50;1.00;;;;;;5117858;28;20435;-49
2023/06/02 01:43:39;;;;;;;6.13;4.87;;;17.50;1.00;;;;;;5099326;28;20488;-48
2023/06/02 01:46:05;;;;;;;6.30;5.00;;;17.40;1.00;;;;;;5099187;28;20510;-47
2023/06/02 01:48:31;;;;;;;5.77;5.20;;;17.40;1.00;;;;;;5099145;28;20435;-46
2023/06/02 01:50:57;;;;;;;5.93;5.27;;;17.40;1.00;;;;;;5098866;28;20708;-49
2023/06/02 01:53:26;;;;;;;7.27;5.50;;;17.40;1.00;;;;;;5117015;28;20178;-49
2023/06/02 01:55:54;;;;;;;6.17;5.57;;;17.40;1.00;;;;;;5117449;28;20179;-49
2023/06/02 01:58:21;;;;;;;5.23;4.73;;;17.40;1.00;;;;;;5117087;28;20536;-48
2023/06/02 02:00:46;;;;;;;5.70;5.10;;;17.30;1.00;;;;;;5116457;28;20803;-46
2023/06/02 02:03:12;;;;;;;5.33;4.83;;;17.20;1.00;;;;;;5116973;28;20575;-47
2023/06/02 02:05:38;;;;;;;6.57;5.97;;;17.10;1.00;;;;;;5124732;28;20347;-46
2023/06/02 02:08:04;;;;;;;6.27;5.67;;;17.10;1.00;;;;;;5119063;28;20267;-47
2023/06/02 02:10:30;;;;;;;8.57;6.03;;;17.00;1.00;;;;;;5132247;28;20209;-49
2023/06/02 02:12:55;;;;;;;8.60;6.03;;;16.90;1.00;;;;;;5116576;28;20437;-47
2023/06/02 02:15:21;;;;;;;6.47;5.63;;;16.90;1.00;;;;;;5117060;28;20815;-50
2023/06/02 02:17:47;;;;;;;6.27;5.07;;;16.90;1.00;;;;;;5116858;28;20187;-48
2023/06/02 02:20:16;;;;;;;6.10;5.47;;;16.80;1.00;;;;;;5116265;28;20267;-48
2023/06/02 02:22:42;;;;;;;6.93;6.10;;;16.80;1.00;;;;;;5115740;28;20491;-47
2023/06/02 02:25:08;;;;;;;6.57;5.33;;;16.80;1.00;;;;;;5116200;28;20576;-49
2023/06/02 02:27:35;;;;;;;5.73;5.13;;;16.70;1.00;;;;;;5116578;28;20567;-47
2023/06/02 02:30:01;;;;;;;7.57;5.33;;;16.70;1.00;;;;;;5116414;28;20266;-47
2023/06/02 02:32:26;;;;;;;6.53;5.20;;;16.70;1.00;;;;;;5116657;28;20509;-47
2023/06/02 02:34:52;;;;;;;6.67;5.47;;;16.70;1.00;;;;;;5116982;28;20282;-47
2023/06/02 02:37:19;;;;;;;6.40;5.50;;;16.70;1.00;;;;;;5116840;28;20184;-48
2023/06/02 02:39:45;;;;;;;7.07;6.37;;;16.70;1.00;;;;;;5116768;28;20488;-47
2023/06/02 02:42:11;;;;;;;7.13;6.20;;;16.60;1.00;;;;;;5116423;28;20425;-46
2023/06/02 02:44:36;;;;;;;7.20;6.10;;;16.50;1.00;;;;;;5117404;28;20221;-49
2023/06/02 02:47:02;;;;;;;6.10;5.50;;;16.40;1.00;;;;;;5117196;28;20561;-45
2023/06/02 02:49:28;;;;;;;8.97;6.50;;;16.40;1.00;;;;;;5117054;28;20515;-47
2023/06/02 02:51:54;;;;;;;7.27;5.60;;;16.40;1.00;;;;;;5116659;28;20417;-48
2023/06/02 02:54:20;;;;;;;7.10;6.40;;;16.40;1.00;;;;;;5114038;27;20591;-47
2023/06/02 02:56:46;;;;;;;6.40;5.80;;;16.30;1.00;;;;;;5139469;27;20423;-46
2023/06/02 02:59:12;;;;;;;6.80;6.10;;;16.30;1.00;;;;;;5139509;27;20771;-48
2023/06/02 03:01:43;;;;;;;8.13;5.93;;;16.30;1.00;;;;;;5139840;27;20175;-49
2023/06/02 03:04:10;;;;;;;5.90;5.40;;;16.30;1.00;;;;;;5139675;27;20420;-48
2023/06/02 03:06:37;;;;;;;7.60;6.90;;;16.30;1.00;;;;;;5139798;27;20969;-47
2023/06/02 03:09:03;;;;;;;6.10;5.50;;;16.30;1.00;;;;;;5139648;27;20702;-50
2023/06/02 03:11:28;;;;;;;6.83;6.13;;;16.30;1.00;;;;;;5134827;27;20823;-48
2023/06/02 03:13:54;;;;;;;8.27;6.40;;;16.20;1.00;;;;;;5119893;28;20468;-47
2023/06/02 03:16:20;;;;;;;6.57;5.97;;;16.10;1.00;;;;;;5120568;28;20270;-48
2023/06/02 03:18:45;;;;;;;7.00;6.07;;;16.10;1.00;;;;;;5119197;28;20187;-50
2023/06/02 03:21:11;;;;;;;8.63;6.63;;;16.00;1.00;;;;;;5119724;28;20484;-51
2023/06/02 03:23:37;;;;;;;8.57;7.13;;;16.00;1.00;;;;;;5120096;28;20187;-47
2023/06/02 03:26:03;;;;;;;6.63;6.03;;;16.00;1.00;;;;;;5119799;28;20206;-47
2023/06/02 03:28:29;;;;;;;6.70;5.50;;;15.90;1.00;;;;;;5102167;28;20528;-47
2023/06/02 03:30:54;;;;;;;7.27;6.57;;;15.80;1.00;;;;;;5100937;28;20207;-46
2023/06/02 03:33:20;;;;;;;6.57;5.87;;;15.90;1.00;;;;;;5118327;28;20748;-46
2023/06/02 03:35:46;;;;;;;6.73;6.03;;;15.80;1.00;;;;;;5119181;28;20182;-49
2023/06/02 03:38:11;;;;;;;9.63;6.30;;;15.70;1.00;;;;;;5118526;28;20258;-47
2023/06/02 03:40:37;;;;;;;11.63;7.27;;;15.70;1.00;;;;;;5117518;28;20194;-49
2023/06/02 03:43:02;;;;;;;8.33;6.60;;;15.60;1.00;;;;;;5118151;28;20176;-47
2023/06/02 03:45:28;;;;;;;8.80;6.53;;;15.50;1.00;;;;;;5120174;27;20180;-49
2023/06/02 03:47:54;;;;;;;11.20;6.50;;;15.50;1.00;;;;;;5119272;28;20290;-50
2023/06/02 03:50:20;;;;;;;8.50;7.10;;;15.40;1.00;;;;;;5118452;28;20184;-48
2023/06/02 03:52:46;;;;;;;7.90;6.70;;;15.40;1.00;;;;;;5117600;28;20266;-50
2023/06/02 03:55:11;;;;;;;7.47;6.53;;;15.30;1.00;;;;;;5117624;28;20530;-50
2023/06/02 03:57:37;;;;;;;10.60;7.23;;;15.20;1.00;;;;;;5119368;28;20516;-48
2023/06/02 04:00:04;;;;;;;7.50;6.70;;;15.10;1.00;;;;;;5123155;27;20183;-49
2023/06/02 04:02:30;;;;;;;8.27;7.37;;;15.10;1.00;;;;;;5128555;27;20678;-50
2023/06/02 04:04:56;;;;;;;8.43;6.93;;;15.10;1.00;;;;;;5133550;27;20430;-47
2023/06/02 04:07:22;;;;;;;7.53;6.83;;;15.20;1.00;;;;;;5119863;27;20222;-49
2023/06/02 04:09:47;;;;;;;11.03;6.70;;;15.20;1.00;;;;;;5119653;27;20502;-49
2023/06/02 04:12:13;;;;;;;9.83;7.37;;;15.20;1.00;;;;;;5099416;28;20565;-46
2023/06/02 04:14:38;;;;;;;9.30;7.40;;;15.20;1.00;;;;;;5117455;28;20183;-48
2023/06/02 04:17:05;;;;;;;9.07;7.07;;;15.20;1.00;;;;;;5117308;28;20462;-48
2023/06/02 04:19:31;;;;;;;8.60;6.83;;;15.20;1.00;;;;;;5099444;28;20509;-47
2023/06/02 04:21:56;;;;;;;7.70;6.47;;;15.30;1.00;;;;;;5114686;28;20476;-47
2023/06/02 04:24:22;;;;;;;7.60;6.30;;;15.40;1.00;;;;;;5113665;28;20495;-49
2023/06/02 04:26:47;;;;;;;10.53;6.97;;;15.50;1.00;;;;;;5113019;28;20223;-49
2023/06/02 04:29:13;;;;;;;8.23;6.90;;;15.70;1.00;;;;;;5114020;28;20192;-48
2023/06/02 04:31:39;;;;;;;7.93;7.13;;;15.80;1.00;;;;;;5114295;28;20184;-47
2023/06/02 04:34:05;;;;;;;8.30;7.50;;;15.90;1.00;;;;;;5114447;28;20646;-48
2023/06/02 04:36:30;;;;;;;7.90;7.10;;;16.00;1.00;;;;;;5114510;28;20184;-48
2023/06/02 04:38:57;;;;;;;8.00;7.20;;;16.00;1.00;;;;;;5129682;27;20549;-48
2023/06/02 04:41:22;;;;;;;7.37;6.63;;;16.10;1.00;;;;;;5136854;27;20186;-48
2023/06/02 04:43:48;;;;;;;7.83;7.13;;;16.20;1.00;;;;;;5137313;27;20929;-47
2023/06/02 04:46:14;;;;;;;10.03;6.93;;;16.20;1.00;;;;;;5137865;27;20476;-51
2023/06/02 04:48:40;;;;;;;10.17;8.53;;;16.20;1.00;;;;;;5137040;27;20195;-46
2023/06/02 04:51:07;;;;;;;9.53;8.53;;;16.20;1.00;;;;;;5134796;27;20217;-46
2023/06/02 04:53:32;;;;;;;8.30;7.50;;;16.20;1.00;;;;;;5134684;27;20477;-48
2023/06/02 04:55:58;;;;;;;8.70;7.70;;;16.10;1.00;;;;;;5136156;27;20417;-49
2023/06/02 04:58:24;;;;;;;8.40;7.50;;;16.00;1.00;;;;;;5134955;27;20187;-48
2023/06/02 05:00:50;;;;;;;9.10;8.20;;;15.90;1.00;;;;;;5136541;27;20754;-48
2023/06/02 05:03:16;;;;;;;9.27;7.60;;;15.90;1.00;;;;;;5136729;27;20191;-47
2023/06/02 05:05:41;;;;;;;10.23;8.67;;;15.90;1.00;;;;;;5135768;27;20857;-48
2023/06/02 05:08:07;;;;;;;8.33;7.43;;;15.90;1.00;;;;;;5133878;27;20247;-51
2023/06/02 05:10:32;;;;;;;9.20;7.67;;;15.80;1.00;;;;;;5134293;27;20187;-48
2023/06/02 05:12:58;;;;;;;9.73;7.60;;;15.80;1.00;;;;;;5134885;27;20572;-51
2023/06/02 05:15:23;;;;;;;10.73;6.83;;;15.70;1.00;;;;;;5135295;27;20236;-48
2023/06/02 05:17:49;;;;;;;12.33;8.53;;;15.70;1.00;;;;;;5134309;27;20258;-47
2023/06/02 05:20:15;;;;;;;8.10;7.17;;;15.70;1.00;;;;;;5134135;27;20205;-48
2023/06/02 05:22:40;;;;;;;9.17;7.93;;;15.80;1.00;;;;;;5135933;27;20530;-51
2023/06/02 05:25:07;;;;;;;9.87;8.40;;;15.90;1.00;;;;;;5134322;27;20211;-49
2023/06/02 05:27:33;;;;;;;9.30;7.77;;;16.00;1.00;;;;;;5134992;27;20219;-47
2023/06/02 05:29:59;;;;;;;9.27;8.00;;;16.10;1.00;;;;;;5133001;27;20413;-48
2023/06/02 05:32:24;;;;;;;10.03;8.97;;;16.10;1.00;;;;;;5133270;27;20207;-48
2023/06/02 05:34:52;;;;;;;9.93;7.57;;;16.20;1.00;;;;;;5133305;27;20432;-46
2023/06/02 05:37:18;;;;;;;8.87;7.97;;;16.10;1.00;;;;;;5117400;27;20191;-47
2023/06/02 05:39:44;;;;;;;9.20;7.90;;;16.20;1.00;;;;;;5114367;28;20499;-48
2023/06/02 05:42:10;;;;;;;9.90;7.60;;;16.30;1.00;;;;;;5096404;28;20448;-51
2023/06/02 05:44:35;;;;;;;10.13;8.23;;;16.40;1.00;;;;;;5114923;28;20237;-48
2023/06/02 05:47:01;;;;;;;9.67;7.83;;;16.60;1.00;;;;;;5114391;28;20234;-48
2023/06/02 05:49:27;;;;;;;10.10;7.80;;;16.70;1.00;;;;;;5111845;28;20212;-49
2023/06/02 05:51:52;;;;;;;8.90;8.00;;;16.80;1.00;;;;;;5111794;28;20534;-48
2023/06/02 05:54:18;;;;;;;10.27;8.30;;;16.90;1.00;;;;;;5110928;28;20295;-47
2023/06/02 05:56:43;;;;;;;9.20;8.20;;;17.00;1.00;;;;;;5112238;28;20286;-48
2023/06/02 05:59:09;;;;;;;10.83;9.17;;;17.00;1.00;;;;;;5111934;28;20190;-48
2023/06/02 06:01:35;;;;;;;9.67;8.67;;;17.10;1.00;;;;;;5112963;28;20194;-47
2023/06/02 06:04:01;;;;;;;8.90;8.00;;;17.10;1.00;;;;;;5117272;28;20290;-49
2023/06/02 06:06:27;;;;;;;9.07;8.10;;;17.10;1.00;;;;;;5130387;28;20595;-48
2023/06/02 06:08:52;;;;;;;10.23;9.03;;;17.00;1.00;;;;;;5132932;28;20427;-50
2023/06/02 06:11:18;;;;;;;10.20;9.20;;;17.00;1.00;;;;;;5114418;28;20405;-48
2023/06/02 06:13:44;;;;;;;10.57;8.97;;;16.90;1.00;;;;;;5120289;28;20187;-48
2023/06/02 06:16:10;;;;;;;8.80;7.90;;;17.00;1.00;;;;;;5115128;28;20505;-46
2023/06/02 06:18:36;;;;;;;8.03;6.93;;;17.10;1.00;;;;;;5115502;28;20712;-50
2023/06/02 06:21:02;;;;;;;7.57;6.87;;;17.30;1.00;;;;;;5114470;28;20472;-48
2023/06/02 06:23:28;;;;;;;9.50;7.77;;;17.50;1.00;;;;;;5114673;28;20178;-47
2023/06/02 06:25:54;;;;;;;10.00;9.00;;;17.80;1.00;;;;;;5114138;28;20250;-47
2023/06/02 06:28:20;;;;;;;8.50;7.73;;;18.00;1.00;;;;;;5094790;28;20425;-49
2023/06/02 06:30:45;;;;;;;10.70;8.27;;;18.10;1.00;;;;;;5116931;28;20180;-47
2023/06/02 06:33:11;;;;;;;9.83;8.33;;;18.30;1.00;;;;;;5117545;28;20437;-49
2023/06/02 06:35:37;;;;;;;10.07;9.03;;;18.30;1.00;;;;;;5124110;27;20207;-49
2023/06/02 06:38:03;;;;;;;10.40;9.10;;;18.20;1.00;;;;;;5118743;28;20512;-50
2023/06/02 06:40:29;;;;;;;9.60;7.80;;;18.20;1.00;;;;;;5127841;27;20201;-47
2023/06/02 06:42:55;;;;;;;11.13;8.77;;;18.30;1.00;;;;;;5137534;27;20425;-48
2023/06/02 06:45:20;;;;;;;9.30;8.37;;;18.50;1.00;;;;;;5139331;27;20711;-50
2023/06/02 06:47:46;;;;;;;9.07;8.17;;;18.60;1.00;;;;;;5139219;27;20214;-50
2023/06/02 06:50:15;;;;;;;10.90;8.70;;;18.90;1.00;;;;;;5138194;27;20171;-51
2023/06/02 06:52:40;;;;;;;13.67;8.70;;;19.10;1.00;;;;;;5138766;27;20193;-49
2023/06/02 06:55:06;;;;;;;12.37;8.23;;;19.20;1.00;;;;;;5137583;27;20416;-47
2023/06/02 06:57:32;;;;;;;9.43;8.40;;;19.30;1.00;;;;;;5138629;27;20255;-49
2023/06/02 06:59:57;;;;;;;10.07;8.17;;;19.30;1.00;;;;;;5137605;27;20462;-48
2023/06/02 07:02:23;;;;;;;10.93;8.67;;;19.50;1.00;;;;;;5137687;27;20179;-51
2023/06/02 07:04:49;;;;;;;10.10;9.20;;;19.70;1.00;;;;;;5137814;27;20491;-49
2023/06/02 07:07:15;;;;;;;10.53;8.57;;;19.90;1.00;;;;;;5120557;27;20207;-53
2023/06/02 07:09:41;;;;;;;9.77;8.43;;;20.00;1.00;;;;;;5140173;27;20202;-49
2023/06/02 07:12:07;;;;;;;9.27;8.33;;;20.10;1.00;;;;;;5137061;27;20493;-50
2023/06/02 07:14:33;;;;;;;11.70;9.80;;;20.20;1.00;;;;;;5139058;27;20791;-49
2023/06/02 07:16:59;;;;;;;8.40;7.60;;;20.30;1.00;;;;;;5138012;27;20183;-49
2023/06/02 07:19:25;;;;;;;9.80;8.30;;;20.40;1.00;;;;;;5137811;27;20769;-49
2023/06/02 07:21:51;;;;;;;8.97;8.13;;;20.60;1.00;;;;;;5136800;27;20300;-48
2023/06/02 07:24:17;;;;;;;10.77;9.67;;;20.80;1.00;;;;;;5135709;27;20424;-47
2023/06/02 07:26:43;;;;;;;10.10;9.10;;;20.90;1.00;;;;;;5135096;27;20464;-48
2023/06/02 07:29:09;;;;;;;9.33;8.40;;;21.00;1.00;;;;;;5134243;27;20255;-49
2023/06/02 07:31:35;;;;;;;8.30;7.10;;;21.00;1.00;;;;;;5133428;27;20417;-48
2023/06/02 07:34:01;;;;;;;8.30;7.40;;;21.10;1.00;;;;;;5116437;27;20420;-48
2023/06/02 07:36:27;;;;;;;10.40;9.30;;;21.30;1.00;;;;;;5116936;27;20198;-47
2023/06/02 07:38:52;;;;;;;8.70;7.80;;;21.50;1.00;;;;;;5118311;27;20172;-48
2023/06/02 07:41:18;;;;;;;9.87;8.83;;;21.50;1.00;;;;;;5117853;27;20222;-47
2023/06/02 07:43:45;;;;;;;11.17;8.20;;;21.60;1.00;;;;;;5136747;27;20274;-47
2023/06/02 07:46:10;;;;;;;10.40;9.30;;;21.60;1.00;;;;;;5119258;27;20211;-50
2023/06/02 07:48:36;;;;;;;10.37;8.93;;;21.60;1.00;;;;;;5120050;27;20515;-48
2023/06/02 07:51:02;;;;;;;8.47;7.67;;;21.50;1.00;;;;;;5102504;27;20260;-49
2023/06/02 07:53:29;;;;;;;9.77;8.60;;;21.70;1.00;;;;;;5136150;27;20798;-49
2023/06/02 07:55:55;;;;;;;8.67;7.83;;;21.80;1.00;;;;;;5117797;27;20417;-49
2023/06/02 07:58:21;;;;;;;9.20;8.27;;;22.10;1.00;;;;;;5135291;27;20431;-47
2023/06/02 08:00:47;;;;;;;9.97;8.97;;;22.30;1.00;;;;;;5134821;27;20451;-48
2023/06/02 08:03:13;;;;;;;10.63;9.53;;;22.40;1.00;;;;;;5134332;27;20179;-48
2023/06/02 08:05:39;;;;;;;9.50;8.60;;;22.50;1.00;;;;;;5134665;27;20549;-48
2023/06/02 08:08:04;;;;;;;9.13;7.60;;;22.40;1.00;;;;;;5134548;27;20207;-48
2023/06/02 08:10:30;;;;;;;9.93;8.90;;;22.60;1.00;;;;;;5135043;27;20176;-49
2023/06/02 08:12:56;;;;;;;10.27;9.10;;;22.70;1.00;;;;;;5117459;27;20270;-48
2023/06/02 08:15:21;;;;;;;9.47;8.40;;;22.80;1.00;;;;;;5119264;27;20572;-48
2023/06/02 08:17:48;;;;;;;9.77;8.80;;;22.80;1.00;;;;;;5136958;27;20243;-50
2023/06/02 08:20:16;;;;;;;9.03;8.13;;;23.00;1.00;;;;;;5102482;27;20183;-48
2023/06/02 08:22:44;;;;;;;8.97;7.97;;;23.10;1.00;;;;;;5135393;27;20473;-48
2023/06/02 08:25:10;;;;;;;8.30;7.50;;;23.20;1.00;;;;;;5118270;27;20489;-47
2023/06/02 08:27:36;;;;;;;10.27;9.23;;;23.30;1.00;;;;;;5117939;27;20487;-47
2023/06/02 08:30:04;;;;;;;10.47;9.37;;;23.40;1.00;;;;;;5116398;27;20433;-49
2023/06/02 08:32:29;;;;;;;10.10;8.50;;;23.50;1.00;;;;;;5133431;27;20564;-49
2023/06/02 08:34:56;;;;;;;8.40;7.57;;;23.50;1.00;;;;;;5101228;27;20520;-49
2023/06/02 08:37:22;;;;;;;10.13;9.20;;;23.70;1.00;;;;;;5117661;27;20464;-50
2023/06/02 08:39:49;;;;;;;9.60;8.60;;;23.90;1.00;;;;;;5118166;27;20428;-47
2023/06/02 08:42:15;;;;;;;9.10;8.17;;;23.70;1.00;;;;;;5136214;27;20183;-48
2023/06/02 08:44:42;;;;;;;9.70;8.70;;;23.80;1.00;;;;;;5135859;27;20404;-48
2023/06/02 08:47:12;;;;;;;10.93;8.47;;;23.80;1.00;;;;;;5117845;27;20600;-51
2023/06/02 08:49:42;;;;;;;9.23;8.23;;;23.80;1.00;;;;;;5134893;27;20432;-49
2023/06/02 08:52:14;;;;;;;8.00;7.20;;;24.10;1.00;;;;;;5115968;27;20436;-48
2023/06/02 08:54:40;;;;;;;9.07;7.90;;;24.40;1.00;;;;;;5117106;27;20424;-49
2023/06/02 08:57:07;;;;;;;8.37;7.33;;;24.70;1.00;;;;;;5115898;27;20433;-48
2023/06/02 08:59:33;;;;;;;8.50;7.60;;;24.90;1.00;;;;;;5133905;27;20424;-49
2023/06/02 09:02:00;;;;;;;9.33;8.43;;;25.00;1.00;;;;;;5117127;27;20404;-50
2023/06/02 09:04:27;;;;;;;9.20;8.30;;;25.30;1.00;;;;;;5135490;27;20436;-50
2023/06/02 09:07:30;;;;;;;8.30;7.60;;;25.50;1.00;;;;;;5135881;27;20564;-48
2023/06/02 09:09:57;;;;;;;8.47;7.70;;;25.70;1.00;;;;;;5032859;28;20715;-50
2023/06/02 09:12:23;;;;;;;10.03;9.13;;;25.90;1.00;;;;;;5114951;27;20865;-49
2023/06/02 09:15:09;;;;;;;9.70;8.80;;;25.60;1.00;;;;;;5116997;27;20520;-50
2023/06/02 09:17:35;;;;;;;8.93;8.13;;;25.40;1.00;;;;;;5117002;27;20177;-50
2023/06/02 09:20:10;;;;;;;11.63;10.43;;;25.30;1.00;;;;;;5137118;27;20417;-50
2023/06/02 09:22:36;;;;;;;8.10;7.40;;;25.30;1.00;;;;;;5136050;27;20226;-48
2023/06/02 09:25:02;;;;;;;9.20;8.40;;;25.40;1.00;;;;;;5117280;27;20436;-49
2023/06/02 09:27:28;;;;;;;11.83;8.80;;;25.50;1.00;;;;;;5135211;27;20522;-50
2023/06/02 09:30:02;;;;;;;8.63;7.83;;;25.60;1.00;;;;;;5136448;27;20444;-49
2023/06/02 09:32:28;;;;;;;8.57;7.87;;;25.90;1.00;;;;;;5135302;27;20174;-49
2023/06/02 09:34:54;;;;;;;8.77;7.83;;;26.10;1.00;;;;;;5135959;27;20764;-49
2023/06/02 09:37:22;;;;;;;8.37;7.67;;;26.40;1.00;;;;;;5129375;27;20198;-48
2023/06/02 09:39:49;;;;;;;9.33;8.53;;;26.70;1.00;;;;;;5126747;27;20436;-50
2023/06/02 09:42:17;;;;;;;8.07;7.33;;;27.00;1.00;;;;;;5117077;27;20433;-50
2023/06/02 09:45:05;;;;;;;9.10;8.20;;;27.10;1.00;;;;;;5096227;28;20827;-49
2023/06/02 09:47:37;;;;;;;9.00;8.10;;;27.20;1.00;;;;;;5111743;28;20513;-47
2023/06/02 09:50:02;;;;;;;11.63;9.60;;;27.30;1.00;;;;;;5111087;28;20417;-47
2023/06/02 09:52:28;;;;;;;8.63;7.93;;;27.60;1.00;;;;;;5112905;28;20435;-49
2023/06/02 09:54:54;;;;;;;9.07;8.27;;;27.70;1.00;;;;;;5093552;28;20608;-48
2023/06/02 09:57:19;;;;;;;9.13;8.23;;;27.70;1.00;;;;;;5094265;28;20215;-48
2023/06/02 09:59:46;;;;;;;9.20;8.20;;;27.70;1.00;;;;;;5113754;28;20234;-49
2023/06/02 10:02:13;;;;;;;8.30;7.43;;;27.90;1.00;;;;;;5113877;28;20176;-46
2023/06/02 10:04:38;;;;;;;8.37;7.67;;;28.00;1.00;;;;;;5093429;28;20433;-46
2023/06/02 10:07:30;;;;;;;8.13;7.53;;;28.00;1.00;;;;;;5111905;28;20483;-49
2023/06/02 10:10:05;;;;;;;8.57;7.77;;;27.70;1.00;;;;;;5111089;28;20187;-48
2023/06/02 10:13:08;;;;;;;9.40;8.50;;;27.40;1.00;;;;;;5112162;28;20453;-47
2023/06/02 10:16:06;;;;;;;10.63;8.47;;;27.60;1.00;;;;;;5113035;28;20814;-51
2023/06/02 10:18:44;;;;;;;8.83;7.93;;;27.90;1.00;;;;;;5094714;28;20449;-47
2023/06/02 10:21:27;;;;;;;7.83;7.13;;;28.20;1.00;;;;;;5111547;28;21003;-50
2023/06/02 10:23:53;;;;;;;10.13;8.47;;;28.40;1.00;;;;;;5112240;28;20422;-51
2023/06/02 10:26:40;;;;;;;7.67;6.87;;;28.80;1.00;;;;;;5113509;28;20550;-49
2023/06/02 10:29:08;;;;;;;10.50;8.07;;;28.90;1.00;;;;;;5113124;28;20623;-50
2023/06/02 10:31:34;;;;;;;7.67;7.07;;;29.30;1.00;;;;;;5094875;28;20436;-52
2023/06/02 10:34:01;;;;;;;8.77;8.07;;;29.50;1.00;;;;;;5094845;28;20429;-47
2023/06/02 10:37:05;;;;;;;9.23;8.50;;;29.60;1.00;;;;;;5096513;28;20191;-48
2023/06/02 10:39:40;;;;;;;9.53;8.53;;;29.60;1.00;;;;;;5075950;28;20429;-48
2023/06/02 10:42:09;;;;;;;8.80;8.10;;;29.60;1.00;;;;;;5112445;28;20434;-48
2023/06/02 10:44:35;;;;;;;10.43;9.00;;;29.60;1.00;;;;;;5113493;28;20391;-49
2023/06/02 10:47:18;;;;;;;8.40;7.60;;;29.80;1.00;;;;;;5113520;28;20453;-48
2023/06/02 10:49:59;;;;;;;8.00;7.23;;;29.60;1.00;;;;;;5113366;28;20553;-48
2023/06/02 10:52:33;;;;;;;7.80;7.20;;;29.60;1.00;;;;;;5113114;28;20432;-48
2023/06/02 10:55:28;;;;;;;9.03;8.00;;;29.60;1.00;;;;;;5112977;28;20433;-50
2023/06/02 10:57:55;;;;;;;7.87;7.30;;;29.70;1.00;;;;;;5110162;28;20782;-50
2023/06/02 11:00:35;;;;;;;8.43;7.47;;;29.90;1.00;;;;;;5111367;28;20512;-48
2023/06/02 11:03:13;;;;;;;8.40;7.60;;;29.90;1.00;;;;;;5110672;28;20525;-50
2023/06/02 11:05:39;;;;;;;7.80;7.20;;;30.10;1.00;;;;;;5113366;28;20659;-49
2023/06/02 11:08:11;;;;;;;9.03;8.30;;;30.40;1.00;;;;;;5095658;28;20453;-49
2023/06/02 11:10:40;;;;;;;7.80;7.20;;;30.60;1.00;;;;;;5110772;28;20214;-51
2023/06/02 11:13:06;;;;;;;8.37;7.67;;;30.60;1.00;;;;;;5076379;28;20801;-50
2023/06/02 11:15:32;;;;;;;8.87;6.23;;;30.60;1.00;;;;;;5111526;28;20422;-49
2023/06/02 11:17:57;;;;;;;7.30;6.70;;;30.40;1.00;;;;;;5096107;28;20537;-49
2023/06/02 11:20:33;;;;;;;7.87;7.17;;;30.50;1.00;;;;;;5114866;28;20477;-51
2023/06/02 11:23:03;;;;;;;7.03;6.43;;;30.70;1.00;;;;;;5113828;28;20227;-52
2023/06/02 11:25:29;;;;;;;7.20;6.60;;;30.60;1.00;;;;;;5112337;28;20426;-52
2023/06/02 11:27:55;;;;;;;7.73;7.03;;;30.90;1.00;;;;;;5113381;28;20566;-49
2023/06/02 11:30:20;;;;;;;10.50;6.77;;;31.10;1.00;;;;;;5115488;28;20176;-53
2023/06/02 11:32:49;;;;;;;7.67;7.00;;;31.30;1.00;;;;;;5114474;28;20191;-51
2023/06/02 11:35:18;;;;;;;7.93;7.10;;;31.50;1.00;;;;;;5115560;28;20523;-47
2023/06/02 11:38:02;;;;;;;7.13;6.53;;;31.60;1.00;;;;;;5112777;28;20738;-48
2023/06/02 11:40:32;;;;;;;8.17;6.87;;;31.90;1.00;;;;;;5114061;28;20711;-48
2023/06/02 11:42:57;;;;;;;7.83;7.23;;;32.00;1.00;;;;;;5096754;28;20438;-49
2023/06/02 11:45:27;;;;;;;7.37;6.77;;;32.10;1.00;;;;;;5116329;28;20404;-52
2023/06/02 11:47:56;;;;;;;7.53;6.93;;;31.90;1.00;;;;;;5094980;27;20309;-48
2023/06/02 11:50:22;;;;;;;8.00;7.33;;;32.20;1.00;;;;;;5136941;27;20384;-49
2023/06/02 11:52:48;;;;;;;8.33;7.63;;;32.00;1.00;;;;;;5135431;27;20399;-52
2023/06/02 11:55:15;;;;;;;7.50;6.90;;;32.10;1.00;;;;;;5116576;27;20549;-49
2023/06/02 11:57:43;;;;;;;7.00;6.50;;;31.90;1.00;;;;;;5135088;27;20473;-50
2023/06/02 12:00:12;;;;;;;6.70;6.20;;;31.80;1.00;;;;;;5134494;27;20425;-52
2023/06/02 12:02:38;;;;;;;6.53;6.03;;;31.90;1.00;;;;;;5101027;27;20425;-50
2023/06/02 12:05:09;;;;;;;7.17;6.57;;;32.10;1.00;;;;;;5118494;27;20654;-48
2023/06/02 12:07:35;;;;;;;7.10;6.50;;;32.30;1.00;;;;;;5120319;27;20431;-49
2023/06/02 12:10:03;;;;;;;7.10;6.53;;;32.50;1.00;;;;;;5118307;27;20670;-48
2023/06/02 12:12:30;;;;;;;6.53;6.03;;;32.50;1.00;;;;;;5134697;27;20483;-52
2023/06/02 12:14:55;;;;;;;6.53;6.03;;;32.50;1.00;;;;;;5135808;27;20424;-48
2023/06/02 12:17:21;;;;;;;6.73;6.17;;;32.40;1.00;;;;;;5135411;27;20670;-47
2023/06/02 12:19:58;;;;;;;7.97;7.27;;;32.50;1.00;;;;;;5134455;27;20292;-51
2023/06/02 12:22:24;;;;;;;6.50;6.03;;;32.60;1.00;;;;;;5117655;27;20246;-48
2023/06/02 12:24:51;;;;;;;6.70;6.10;;;32.80;1.00;;;;;;5135671;27;20612;-47
2023/06/02 12:27:23;;;;;;;6.10;5.50;;;32.70;1.00;;;;;;5118162;27;20210;-49
2023/06/02 12:29:49;;;;;;;7.43;6.83;;;32.80;1.00;;;;;;5102462;27;20413;-50
2023/06/02 12:32:25;;;;;;;7.57;6.40;;;33.10;1.00;;;;;;5137905;27;20384;-51
2023/06/02 12:34:50;;;;;;;6.30;5.80;;;32.90;1.00;;;;;;5136800;27;20178;-49
2023/06/02 12:37:17;;;;;;;7.43;6.73;;;33.00;1.00;;;;;;5136457;27;20472;-48
2023/06/02 12:39:43;;;;;;;8.20;6.93;;;33.00;1.00;;;;;;5135789;27;20186;-46
2023/06/02 12:42:12;;;;;;;7.20;6.47;;;33.20;1.00;;;;;;5135103;27;20705;-50
2023/06/02 12:44:38;;;;;;;7.13;6.53;;;33.10;1.00;;;;;;5135127;27;20264;-48
2023/06/02 12:47:06;;;;;;;6.47;5.97;;;32.90;1.00;;;;;;5134965;27;20444;-48
2023/06/02 12:49:31;;;;;;;6.57;6.03;;;32.80;1.00;;;;;;5133839;27;20236;-52
2023/06/02 12:51:57;;;;;;;7.83;6.30;;;32.60;1.00;;;;;;5133023;27;20399;-49
2023/06/02 12:54:23;;;;;;;7.10;6.50;;;32.50;1.00;;;;;;5116609;27;20244;-46
2023/06/02 12:56:49;;;;;;;6.63;6.07;;;32.40;1.00;;;;;;5133267;27;20230;-49